createdAt,value
2018-12-05T00:00:04.711Z,-0.60
2018-12-05T00:01:05.070Z,-0.60
2018-12-05T00:02:04.495Z,-0.60
2018-12-05T00:03:04.475Z,-0.60
2018-12-05T00:04:04.521Z,-0.50
2018-12-05T00:05:04.826Z,-0.60
2018-12-05T00:06:04.833Z,-0.60
2018-12-05T00:07:04.815Z,-0.60
2018-12-05T00:08:04.364Z,-0.60
2018-12-05T00:09:04.556Z,-0.60
2018-12-05T00:10:04.581Z,-0.60
2018-12-05T00:11:04.898Z,-0.60
2018-12-05T00:12:04.992Z,-0.60
2018-12-05T00:13:04.636Z,-0.70
2018-12-05T00:14:04.696Z,-0.70
2018-12-05T00:15:04.663Z,-0.70
2018-12-05T00:16:04.816Z,-0.70
2018-12-05T00:17:04.861Z,-0.70
2018-12-05T00:18:04.299Z,-0.70
2018-12-05T00:19:04.269Z,-0.70
2018-12-05T00:20:04.340Z,-0.60
2018-12-05T00:21:04.539Z,-0.60
2018-12-05T00:22:04.746Z,-0.60
2018-12-05T00:23:05.234Z,-0.60
2018-12-05T00:24:05.025Z,-0.60
2018-12-05T00:25:04.511Z,-0.60
2018-12-05T00:26:04.594Z,-0.60
2018-12-05T00:27:04.834Z,-0.60
2018-12-05T00:28:10.165Z,-0.60
2018-12-05T00:29:04.519Z,-0.70
2018-12-05T00:30:04.555Z,-0.60
2018-12-05T00:31:04.862Z,-0.70
2018-12-05T00:32:04.836Z,-0.70
2018-12-05T00:33:04.182Z,-0.60
2018-12-05T00:34:04.230Z,-0.70
2018-12-05T00:35:04.275Z,-0.70
2018-12-05T00:36:04.377Z,-0.70
2018-12-05T00:37:04.360Z,-0.70
2018-12-05T00:38:04.407Z,-0.70
2018-12-05T00:39:05.056Z,-0.70
2018-12-05T00:40:05.060Z,-0.70
2018-12-05T00:41:04.459Z,-0.70
2018-12-05T00:42:04.642Z,-0.70
2018-12-05T00:43:04.693Z,-0.70
2018-12-05T00:44:04.849Z,-0.60
2018-12-05T00:45:04.970Z,-0.60
2018-12-05T00:46:04.948Z,-0.60
2018-12-05T00:47:04.946Z,-0.60
2018-12-05T00:48:05.111Z,-0.60
2018-12-05T00:49:04.434Z,-0.60
2018-12-05T00:50:04.596Z,-0.60
2018-12-05T00:51:05.132Z,-0.60
2018-12-05T00:52:04.727Z,-0.60
2018-12-05T00:53:04.982Z,-0.60
2018-12-05T00:54:05.009Z,-0.60
2018-12-05T00:55:05.114Z,-0.60
2018-12-05T00:56:04.687Z,-0.60
2018-12-05T00:57:04.659Z,-0.60
2018-12-05T00:58:04.731Z,-0.60
2018-12-05T00:59:04.914Z,-0.60
2018-12-05T01:00:05.037Z,-0.60
2018-12-05T01:01:05.037Z,-0.60
2018-12-05T01:02:04.456Z,-0.60
2018-12-05T01:03:04.696Z,-0.60
2018-12-05T01:04:04.828Z,-0.60
2018-12-05T01:05:04.740Z,-0.60
2018-12-05T01:06:04.763Z,-0.60
2018-12-05T01:07:04.143Z,-0.60
2018-12-05T01:08:04.453Z,-0.60
2018-12-05T01:09:05.027Z,-0.60
2018-12-05T01:10:05.047Z,-0.60
2018-12-05T01:11:05.105Z,-0.60
2018-12-05T01:12:05.108Z,-0.60
2018-12-05T01:13:04.503Z,-0.60
2018-12-05T01:14:05.247Z,-0.60
2018-12-05T01:15:04.575Z,-0.60
2018-12-05T01:16:04.713Z,-0.60
2018-12-05T01:17:04.698Z,-0.60
2018-12-05T01:18:05.098Z,-0.60
2018-12-05T01:19:04.267Z,-0.60
2018-12-05T01:20:04.298Z,-0.60
2018-12-05T01:21:04.467Z,-0.60
2018-12-05T01:22:04.404Z,-0.60
2018-12-05T01:23:04.479Z,-0.50
2018-12-05T01:24:04.399Z,-0.50
2018-12-05T01:25:04.948Z,-0.50
2018-12-05T01:26:04.757Z,-0.50
2018-12-05T01:27:04.810Z,-0.50
2018-12-05T01:28:09.766Z,-0.50
2018-12-05T01:29:04.150Z,-0.50
2018-12-05T01:30:04.322Z,-0.50
2018-12-05T01:31:04.482Z,-0.50
2018-12-05T01:32:04.623Z,-0.50
2018-12-05T01:33:04.960Z,-0.50
2018-12-05T01:34:05.056Z,-0.50
2018-12-05T01:35:04.236Z,-0.50
2018-12-05T01:36:04.653Z,-0.50
2018-12-05T01:37:04.807Z,-0.50
2018-12-05T01:38:04.823Z,-0.50
2018-12-05T01:39:04.279Z,-0.50
2018-12-05T01:40:04.648Z,-0.40
2018-12-05T01:41:04.906Z,-0.40
2018-12-05T01:42:04.792Z,-0.40
2018-12-05T01:43:05.066Z,-0.40
2018-12-05T01:44:04.198Z,-0.40
2018-12-05T01:45:04.497Z,-0.40
2018-12-05T01:46:04.598Z,-0.40
2018-12-05T01:47:04.987Z,-0.40
2018-12-05T01:48:10.218Z,-0.40
2018-12-05T01:49:04.501Z,-0.40
2018-12-05T01:50:04.664Z,-0.40
2018-12-05T01:51:04.692Z,-0.40
2018-12-05T01:52:04.284Z,-0.40
2018-12-05T01:53:04.915Z,-0.40
2018-12-05T01:54:04.367Z,-0.40
2018-12-05T01:55:04.806Z,-0.40
2018-12-05T01:56:04.395Z,-0.50
2018-12-05T01:57:04.843Z,-0.50
2018-12-05T01:58:04.925Z,-0.50
2018-12-05T01:59:04.448Z,-0.40
2018-12-05T02:00:04.775Z,-0.50
2018-12-05T02:01:04.992Z,-0.50
2018-12-05T02:02:05.109Z,-0.50
2018-12-05T02:03:05.049Z,-0.40
2018-12-05T02:04:04.223Z,-0.40
2018-12-05T02:05:04.534Z,-0.40
2018-12-05T02:06:05.024Z,-0.40
2018-12-05T02:07:04.265Z,-0.40
2018-12-05T02:08:04.533Z,-0.40
2018-12-05T02:09:04.626Z,-0.40
2018-12-05T02:10:04.654Z,-0.40
2018-12-05T02:11:04.862Z,-0.40
2018-12-05T02:12:04.143Z,-0.40
2018-12-05T02:13:04.373Z,-0.40
2018-12-05T02:14:04.552Z,-0.30
2018-12-05T02:15:05.085Z,-0.30
2018-12-05T02:16:04.565Z,-0.30
2018-12-05T02:17:05.242Z,-0.30
2018-12-05T02:18:04.793Z,-0.30
2018-12-05T02:19:04.386Z,-0.30
2018-12-05T02:20:04.462Z,-0.30
2018-12-05T02:21:04.499Z,-0.30
2018-12-05T02:22:05.023Z,-0.30
2018-12-05T02:23:05.150Z,-0.30
2018-12-05T02:24:05.107Z,-0.30
2018-12-05T02:25:04.143Z,-0.30
2018-12-05T02:26:04.293Z,-0.30
2018-12-05T02:27:04.646Z,-0.30
2018-12-05T02:28:09.301Z,-0.30
2018-12-05T02:29:04.706Z,-0.30
2018-12-05T02:30:04.810Z,-0.40
2018-12-05T02:31:04.301Z,-0.40
2018-12-05T02:32:04.813Z,-0.40
2018-12-05T02:33:05.002Z,-0.40
2018-12-05T02:34:04.311Z,-0.40
2018-12-05T02:35:04.984Z,-0.40
2018-12-05T02:36:04.913Z,-0.40
2018-12-05T02:37:04.839Z,-0.40
2018-12-05T02:38:04.493Z,-0.40
2018-12-05T02:39:04.889Z,-0.40
2018-12-05T02:40:04.395Z,-0.40
2018-12-05T02:41:05.159Z,-0.40
2018-12-05T02:42:04.510Z,-0.40
2018-12-05T02:43:04.641Z,-0.40
2018-12-05T02:44:04.593Z,-0.40
2018-12-05T02:45:04.251Z,-0.40
2018-12-05T02:46:04.899Z,-0.40
2018-12-05T02:47:04.911Z,-0.40
2018-12-05T02:48:10.135Z,-0.40
2018-12-05T02:49:04.581Z,-0.40
2018-12-05T02:50:04.569Z,-0.40
2018-12-05T02:51:04.606Z,-0.50
2018-12-05T02:52:04.726Z,-0.50
2018-12-05T02:53:04.673Z,-0.50
2018-12-05T02:54:04.227Z,-0.50
2018-12-05T02:55:04.287Z,-0.50
2018-12-05T02:56:04.794Z,-0.50
2018-12-05T02:57:04.414Z,-0.50
2018-12-05T02:58:04.680Z,-0.50
2018-12-05T02:59:04.413Z,-0.50
2018-12-05T03:00:04.772Z,-0.50
2018-12-05T03:01:04.750Z,-0.50
2018-12-05T03:02:04.169Z,-0.50
2018-12-05T03:03:04.249Z,-0.50
2018-12-05T03:04:04.384Z,-0.50
2018-12-05T03:05:04.630Z,-0.50
2018-12-05T03:06:04.738Z,-0.50
2018-12-05T03:07:04.173Z,-0.50
2018-12-05T03:08:04.453Z,-0.50
2018-12-05T03:09:04.329Z,-0.50
2018-12-05T03:10:04.887Z,-0.50
2018-12-05T03:11:05.124Z,-0.50
2018-12-05T03:12:04.410Z,-0.50
2018-12-05T03:13:04.488Z,-0.50
2018-12-05T03:14:04.998Z,-0.50
2018-12-05T03:15:05.174Z,-0.50
2018-12-05T03:16:04.565Z,-0.50
2018-12-05T03:17:04.605Z,-0.50
2018-12-05T03:18:04.668Z,-0.50
2018-12-05T03:19:04.807Z,-0.50
2018-12-05T03:20:05.341Z,-0.50
2018-12-05T03:21:05.218Z,-0.60
2018-12-05T03:22:04.304Z,-0.60
2018-12-05T03:23:04.746Z,-0.50
2018-12-05T03:24:04.269Z,-0.60
2018-12-05T03:25:04.442Z,-0.60
2018-12-05T03:26:05.108Z,-0.60
2018-12-05T03:27:04.420Z,-0.60
2018-12-05T03:28:04.885Z,-0.60
2018-12-05T03:29:04.343Z,-0.60
2018-12-05T03:30:04.399Z,-0.60
2018-12-05T03:31:04.457Z,-0.60
2018-12-05T03:32:05.073Z,-0.60
2018-12-05T03:33:04.297Z,-0.60
2018-12-05T03:34:04.427Z,-0.60
2018-12-05T03:35:04.361Z,-0.60
2018-12-05T03:36:04.896Z,-0.60
2018-12-05T03:37:04.476Z,-0.60
2018-12-05T03:38:04.683Z,-0.60
2018-12-05T03:39:04.562Z,-0.60
2018-12-05T03:40:04.921Z,-0.60
2018-12-05T03:41:04.934Z,-0.60
2018-12-05T03:42:04.940Z,-0.60
2018-12-05T03:43:05.096Z,-0.60
2018-12-05T03:44:05.203Z,-0.60
2018-12-05T03:45:04.358Z,-0.60
2018-12-05T03:46:04.685Z,-0.60
2018-12-05T03:47:05.139Z,-0.60
2018-12-05T03:48:04.283Z,-0.60
2018-12-05T03:49:04.683Z,-0.60
2018-12-05T03:50:04.772Z,-0.60
2018-12-05T03:51:04.948Z,-0.60
2018-12-05T03:52:05.110Z,-0.60
2018-12-05T03:53:05.062Z,-0.50
2018-12-05T03:54:04.548Z,-0.60
2018-12-05T03:55:04.610Z,-0.50
2018-12-05T03:56:04.713Z,-0.50
2018-12-05T03:57:05.145Z,-0.50
2018-12-05T03:58:04.149Z,-0.50
2018-12-05T03:59:04.394Z,-0.50
2018-12-05T04:00:04.801Z,-0.50
2018-12-05T04:01:05.015Z,-0.50
2018-12-05T04:02:04.174Z,-0.50
2018-12-05T04:03:04.460Z,-0.50
2018-12-05T04:04:04.815Z,-0.50
2018-12-05T04:05:04.903Z,-0.50
2018-12-05T04:06:05.035Z,-0.50
2018-12-05T04:07:05.004Z,-0.50
2018-12-05T04:08:04.599Z,-0.50
2018-12-05T04:09:04.621Z,-0.50
2018-12-05T04:10:04.735Z,-0.50
2018-12-05T04:11:04.770Z,-0.50
2018-12-05T04:12:04.989Z,-0.50
2018-12-05T04:13:05.091Z,-0.50
2018-12-05T04:14:04.413Z,-0.50
2018-12-05T04:15:04.913Z,-0.50
2018-12-05T04:16:05.012Z,-0.50
2018-12-05T04:17:04.712Z,-0.50
2018-12-05T04:18:05.024Z,-0.50
2018-12-05T04:19:04.275Z,-0.50
2018-12-05T04:20:04.277Z,-0.50
2018-12-05T04:21:04.632Z,-0.50
2018-12-05T04:22:05.067Z,-0.50
2018-12-05T04:23:05.059Z,-0.50
2018-12-05T04:24:05.154Z,-0.50
2018-12-05T04:25:05.125Z,-0.50
2018-12-05T04:26:04.629Z,-0.50
2018-12-05T04:27:04.702Z,-0.50
2018-12-05T04:28:09.872Z,-0.50
2018-12-05T04:29:04.217Z,-0.50
2018-12-05T04:30:04.351Z,-0.50
2018-12-05T04:31:04.363Z,-0.50
2018-12-05T04:32:04.492Z,-0.50
2018-12-05T04:33:04.608Z,-0.50
2018-12-05T04:34:04.606Z,-0.50
2018-12-05T04:35:04.802Z,-0.60
2018-12-05T04:36:05.159Z,-0.50
2018-12-05T04:37:05.118Z,-0.60
2018-12-05T04:38:04.444Z,-0.60
2018-12-05T04:39:05.036Z,-0.60
2018-12-05T04:40:04.466Z,-0.60
2018-12-05T04:41:04.443Z,-0.50
2018-12-05T04:42:04.687Z,-0.50
2018-12-05T04:43:04.821Z,-0.50
2018-12-05T04:44:05.011Z,-0.50
2018-12-05T04:45:04.620Z,-0.50
2018-12-05T04:46:04.786Z,-0.50
2018-12-05T04:47:04.183Z,-0.50
2018-12-05T04:48:04.497Z,-0.50
2018-12-05T04:49:04.399Z,-0.50
2018-12-05T04:50:04.651Z,-0.50
2018-12-05T04:51:04.716Z,-0.50
2018-12-05T04:52:04.423Z,-0.50
2018-12-05T04:53:04.411Z,-0.50
2018-12-05T04:54:04.753Z,-0.60
2018-12-05T04:55:04.848Z,-0.60
2018-12-05T04:56:04.867Z,-0.60
2018-12-05T04:57:05.018Z,-0.60
2018-12-05T04:58:04.640Z,-0.60
2018-12-05T04:59:04.917Z,-0.60
2018-12-05T05:00:04.910Z,-0.60
2018-12-05T05:01:05.152Z,-0.60
2018-12-05T05:02:04.478Z,-0.60
2018-12-05T05:03:05.131Z,-0.60
2018-12-05T05:04:04.580Z,-0.60
2018-12-05T05:05:05.132Z,-0.60
2018-12-05T05:06:05.059Z,-0.60
2018-12-05T05:07:06.846Z,-0.60
2018-12-05T05:08:04.727Z,-0.60
2018-12-05T05:09:05.196Z,-0.60
2018-12-05T05:10:04.427Z,-0.60
2018-12-05T05:11:04.546Z,-0.60
2018-12-05T05:12:04.524Z,-0.60
2018-12-05T05:13:04.673Z,-0.60
2018-12-05T05:14:05.093Z,-0.60
2018-12-05T05:15:05.030Z,-0.60
2018-12-05T05:16:04.320Z,-0.60
2018-12-05T05:17:04.407Z,-0.60
2018-12-05T05:18:04.469Z,-0.70
2018-12-05T05:19:04.583Z,-0.70
2018-12-05T05:20:04.589Z,-0.70
2018-12-05T05:21:04.728Z,-0.70
2018-12-05T05:22:04.916Z,-0.70
2018-12-05T05:23:04.596Z,-0.70
2018-12-05T05:24:05.021Z,-0.70
2018-12-05T05:25:05.553Z,-0.70
2018-12-05T05:26:04.661Z,-0.70
2018-12-05T05:27:04.773Z,-0.80
2018-12-05T05:28:09.981Z,-0.80
2018-12-05T05:29:04.355Z,-0.80
2018-12-05T05:30:04.429Z,-0.80
2018-12-05T05:31:04.574Z,-0.80
2018-12-05T05:32:04.596Z,-0.80
2018-12-05T05:33:04.697Z,-0.80
2018-12-05T05:34:04.809Z,-0.90
2018-12-05T05:35:04.773Z,-0.90
2018-12-05T05:36:04.972Z,-0.90
2018-12-05T05:37:04.400Z,-1.00
2018-12-05T05:38:04.761Z,-1.00
2018-12-05T05:39:05.084Z,-1.00
2018-12-05T05:40:05.234Z,-1.00
2018-12-05T05:41:04.305Z,-1.10
2018-12-05T05:42:04.329Z,-1.10
2018-12-05T05:43:04.811Z,-1.10
2018-12-05T05:44:04.808Z,-1.10
2018-12-05T05:45:04.987Z,-1.10
2018-12-05T05:46:04.344Z,-1.10
2018-12-05T05:47:04.955Z,-1.10
2018-12-05T05:48:04.738Z,-1.10
2018-12-05T05:49:04.842Z,-1.20
2018-12-05T05:50:04.929Z,-1.20
2018-12-05T05:51:05.035Z,-1.20
2018-12-05T05:52:05.070Z,-1.20
2018-12-05T05:53:04.476Z,-1.20
2018-12-05T05:54:04.524Z,-1.20
2018-12-05T05:55:04.722Z,-1.20
2018-12-05T05:56:04.241Z,-1.20
2018-12-05T05:57:05.035Z,-1.20
2018-12-05T05:58:05.048Z,-1.20
2018-12-05T05:59:04.745Z,-1.20
2018-12-05T06:00:04.718Z,-1.20
2018-12-05T06:01:05.145Z,-1.30
2018-12-05T06:02:04.182Z,-1.30
2018-12-05T06:03:05.032Z,-1.30
2018-12-05T06:04:04.857Z,-1.30
2018-12-05T06:05:05.021Z,-1.30
2018-12-05T06:06:04.996Z,-1.30
2018-12-05T06:07:05.112Z,-1.30
2018-12-05T06:08:05.255Z,-1.40
2018-12-05T06:09:05.169Z,-1.40
2018-12-05T06:10:04.147Z,-1.40
2018-12-05T06:11:04.704Z,-1.40
2018-12-05T06:12:04.916Z,-1.40
2018-12-05T06:13:04.977Z,-1.40
2018-12-05T06:14:05.045Z,-1.40
2018-12-05T06:15:04.423Z,-1.40
2018-12-05T06:16:04.564Z,-1.50
2018-12-05T06:17:04.784Z,-1.50
2018-12-05T06:18:04.292Z,-1.50
2018-12-05T06:19:05.312Z,-1.50
2018-12-05T06:20:05.128Z,-1.60
2018-12-05T06:21:05.301Z,-1.60
2018-12-05T06:22:04.213Z,-1.60
2018-12-05T06:23:04.892Z,-1.60
2018-12-05T06:24:04.321Z,-1.60
2018-12-05T06:25:04.292Z,-1.60
2018-12-05T06:26:04.700Z,-1.70
2018-12-05T06:27:04.321Z,-1.70
2018-12-05T06:28:04.407Z,-1.70
2018-12-05T06:29:04.893Z,-1.70
2018-12-05T06:30:04.293Z,-1.70
2018-12-05T06:31:04.843Z,-1.70
2018-12-05T06:32:05.144Z,-1.70
2018-12-05T06:33:04.334Z,-1.70
2018-12-05T06:34:04.404Z,-1.70
2018-12-05T06:35:10.070Z,-1.70
2018-12-05T06:36:04.576Z,-1.70
2018-12-05T06:37:04.555Z,-1.70
2018-12-05T06:38:04.689Z,-1.70
2018-12-05T06:39:05.124Z,-1.70
2018-12-05T06:40:04.218Z,-1.70
2018-12-05T06:41:04.668Z,-1.70
2018-12-05T06:42:04.690Z,-1.70
2018-12-05T06:43:04.937Z,-1.70
2018-12-05T06:44:04.324Z,-1.80
2018-12-05T06:45:04.557Z,-1.80
2018-12-05T06:46:04.629Z,-1.80
2018-12-05T06:47:04.305Z,-1.80
2018-12-05T06:48:04.884Z,-1.80
2018-12-05T06:49:05.139Z,-1.80
2018-12-05T06:50:04.299Z,-1.80
2018-12-05T06:51:04.693Z,-1.80
2018-12-05T06:52:04.934Z,-1.80
2018-12-05T06:53:05.299Z,-1.90
2018-12-05T06:54:04.699Z,-1.90
2018-12-05T06:55:05.235Z,-1.90
2018-12-05T06:56:05.084Z,-1.90
2018-12-05T06:57:04.261Z,-1.90
2018-12-05T06:58:04.283Z,-1.90
2018-12-05T06:59:04.545Z,-2.00
2018-12-05T07:00:04.725Z,-2.00
2018-12-05T07:01:04.765Z,-2.00
2018-12-05T07:02:04.835Z,-2.00
2018-12-05T07:03:05.071Z,-2.00
2018-12-05T07:04:04.492Z,-2.00
2018-12-05T07:05:04.845Z,-2.00
2018-12-05T07:06:05.064Z,-2.00
2018-12-05T07:07:04.373Z,-2.00
2018-12-05T07:08:04.762Z,-2.00
2018-12-05T07:09:05.170Z,-2.00
2018-12-05T07:10:04.398Z,-2.00
2018-12-05T07:11:04.414Z,-2.00
2018-12-05T07:12:04.591Z,-2.00
2018-12-05T07:13:05.002Z,-2.00
2018-12-05T07:14:05.181Z,-2.00
2018-12-05T07:15:04.365Z,-2.00
2018-12-05T07:16:04.407Z,-2.00
2018-12-05T07:17:04.770Z,-2.00
2018-12-05T07:18:05.135Z,-2.00
2018-12-05T07:19:04.241Z,-2.00
2018-12-05T07:20:04.356Z,-2.00
2018-12-05T07:21:04.505Z,-2.00
2018-12-05T07:22:04.373Z,-2.00
2018-12-05T07:23:04.459Z,-2.00
2018-12-05T07:24:04.847Z,-2.00
2018-12-05T07:25:04.693Z,-2.00
2018-12-05T07:26:04.246Z,-2.00
2018-12-05T07:27:04.470Z,-2.00
2018-12-05T07:28:04.401Z,-2.00
2018-12-05T07:29:04.855Z,-2.00
2018-12-05T07:30:04.776Z,-2.00
2018-12-05T07:31:04.855Z,-2.00
2018-12-05T07:32:05.087Z,-2.00
2018-12-05T07:33:05.189Z,-2.00
2018-12-05T07:34:05.160Z,-2.00
2018-12-05T07:35:04.288Z,-2.00
2018-12-05T07:36:04.279Z,-2.00
2018-12-05T07:37:04.979Z,-2.00
2018-12-05T07:38:04.340Z,-2.00
2018-12-05T07:39:04.901Z,-2.00
2018-12-05T07:40:04.322Z,-2.00
2018-12-05T07:41:04.471Z,-2.00
2018-12-05T07:42:04.422Z,-1.90
2018-12-05T07:43:10.105Z,-1.90
2018-12-05T07:44:04.521Z,-1.90
2018-12-05T07:45:04.974Z,-1.90
2018-12-05T07:46:05.020Z,-1.90
2018-12-05T07:47:04.332Z,-1.90
2018-12-05T07:48:04.761Z,-1.90
2018-12-05T07:49:04.521Z,-1.90
2018-12-05T07:50:04.914Z,-1.90
2018-12-05T07:51:04.986Z,-1.90
2018-12-05T07:52:05.238Z,-1.90
2018-12-05T07:53:05.245Z,-1.90
2018-12-05T07:54:04.351Z,-1.90
2018-12-05T07:55:04.649Z,-1.90
2018-12-05T07:56:04.878Z,-1.90
2018-12-05T07:57:05.042Z,-1.90
2018-12-05T07:58:05.099Z,-1.90
2018-12-05T07:59:04.449Z,-1.90
2018-12-05T08:00:04.846Z,-1.80
2018-12-05T08:01:04.964Z,-1.90
2018-12-05T08:02:04.939Z,-1.80
2018-12-05T08:03:04.488Z,-1.80
2018-12-05T08:04:04.676Z,-1.80
2018-12-05T08:05:04.931Z,-1.80
2018-12-05T08:06:04.400Z,-1.80
2018-12-05T08:07:04.873Z,-1.80
2018-12-05T08:08:05.114Z,-1.80
2018-12-05T08:09:04.632Z,-1.70
2018-12-05T08:10:04.869Z,-1.70
2018-12-05T08:11:04.380Z,-1.70
2018-12-05T08:12:05.107Z,-1.70
2018-12-05T08:13:04.600Z,-1.70
2018-12-05T08:14:06.553Z,-1.70
2018-12-05T08:15:04.313Z,-1.70
2018-12-05T08:16:04.585Z,-1.60
2018-12-05T08:17:04.771Z,-1.60
2018-12-05T08:18:04.885Z,-1.60
2018-12-05T08:19:04.907Z,-1.60
2018-12-05T08:20:04.950Z,-1.60
2018-12-05T08:21:05.193Z,-1.50
2018-12-05T08:22:04.698Z,-1.50
2018-12-05T08:23:05.215Z,-1.50
2018-12-05T08:24:04.230Z,-1.40
2018-12-05T08:25:04.365Z,-1.40
2018-12-05T08:26:04.323Z,-1.40
2018-12-05T08:27:04.697Z,-1.40
2018-12-05T08:28:09.753Z,-1.30
2018-12-05T08:29:05.236Z,-1.30
2018-12-05T08:30:05.067Z,-1.30
2018-12-05T08:31:04.671Z,-1.30
2018-12-05T08:32:05.498Z,-1.20
2018-12-05T08:33:04.193Z,-1.20
2018-12-05T08:34:04.297Z,-1.20
2018-12-05T08:35:04.369Z,-1.20
2018-12-05T08:36:05.041Z,-1.10
2018-12-05T08:37:04.686Z,-1.10
2018-12-05T08:38:05.141Z,-1.10
2018-12-05T08:39:04.612Z,-1.00
2018-12-05T08:40:04.819Z,-1.00
2018-12-05T08:41:04.952Z,-1.00
2018-12-05T08:42:04.976Z,-1.00
2018-12-05T08:43:04.495Z,-0.90
2018-12-05T08:44:04.673Z,-0.90
2018-12-05T08:45:04.735Z,-0.90
2018-12-05T08:46:04.909Z,-0.90
2018-12-05T08:47:04.969Z,-0.80
2018-12-05T08:48:04.528Z,-0.80
2018-12-05T08:49:05.096Z,-0.80
2018-12-05T08:50:04.552Z,-0.70
2018-12-05T08:51:04.972Z,-0.70
2018-12-05T08:52:05.158Z,-0.70
2018-12-05T08:53:04.250Z,-0.60
2018-12-05T08:54:04.909Z,-0.60
2018-12-05T08:55:05.143Z,-0.60
2018-12-05T08:56:04.474Z,-0.60
2018-12-05T08:57:04.656Z,-0.50
2018-12-05T08:58:04.720Z,-0.50
2018-12-05T08:59:04.310Z,-0.50
2018-12-05T09:00:04.373Z,-0.50
2018-12-05T09:01:04.735Z,-0.40
2018-12-05T09:02:04.811Z,-0.40
2018-12-05T09:03:04.442Z,-0.40
2018-12-05T09:04:04.815Z,-0.30
2018-12-05T09:05:04.494Z,-0.30
2018-12-05T09:06:04.647Z,-0.30
2018-12-05T09:07:04.808Z,-0.30
2018-12-05T09:08:04.920Z,-0.30
2018-12-05T09:09:04.885Z,-0.20
2018-12-05T09:10:05.151Z,-0.20
2018-12-05T09:11:04.585Z,-0.20
2018-12-05T09:12:04.665Z,-0.20
2018-12-05T09:13:04.685Z,-0.10
2018-12-05T09:14:04.866Z,-0.10
2018-12-05T09:15:04.827Z,-0.10
2018-12-05T09:16:04.459Z,-0.10
2018-12-05T09:17:04.792Z,0.00
2018-12-05T09:18:04.249Z,0.00
2018-12-05T09:19:04.371Z,0.00
2018-12-05T09:20:04.570Z,0.00
2018-12-05T09:21:04.958Z,0.10
2018-12-05T09:22:05.106Z,0.10
2018-12-05T09:23:04.440Z,0.10
2018-12-05T09:24:04.509Z,0.20
2018-12-05T09:25:04.598Z,0.20
2018-12-05T09:26:04.755Z,0.20
2018-12-05T09:27:05.030Z,0.20
2018-12-05T09:28:09.553Z,0.30
2018-12-05T09:29:05.106Z,0.30
2018-12-05T09:30:04.404Z,0.30
2018-12-05T09:31:04.650Z,0.30
2018-12-05T09:32:05.019Z,0.40
2018-12-05T09:33:04.542Z,0.40
2018-12-05T09:34:05.061Z,0.40
2018-12-05T09:35:04.743Z,0.50
2018-12-05T09:36:04.797Z,0.50
2018-12-05T09:37:04.747Z,0.50
2018-12-05T09:38:04.794Z,0.50
2018-12-05T09:39:04.885Z,0.60
2018-12-05T09:40:05.382Z,0.60
2018-12-05T09:41:04.477Z,0.60
2018-12-05T09:42:04.422Z,0.70
2018-12-05T09:43:04.982Z,0.70
2018-12-05T09:44:04.488Z,0.70
2018-12-05T09:45:04.819Z,0.80
2018-12-05T09:46:04.423Z,0.80
2018-12-05T09:47:05.179Z,0.80
2018-12-05T09:48:09.437Z,0.80
2018-12-05T09:49:04.792Z,0.90
2018-12-05T09:50:05.222Z,0.90
2018-12-05T09:51:04.263Z,0.90
2018-12-05T09:52:04.439Z,1.00
2018-12-05T09:53:04.358Z,1.00
2018-12-05T09:54:04.505Z,1.00
2018-12-05T09:55:04.529Z,1.10
2018-12-05T09:56:04.730Z,1.10
2018-12-05T09:57:05.076Z,1.10
2018-12-05T09:58:04.673Z,1.10
2018-12-05T09:59:04.677Z,1.20
2018-12-05T10:00:04.685Z,1.20
2018-12-05T10:01:04.783Z,1.30
2018-12-05T10:02:04.314Z,1.30
2018-12-05T10:03:04.347Z,1.30
2018-12-05T10:04:04.630Z,1.30
2018-12-05T10:05:04.658Z,1.40
2018-12-05T10:06:04.785Z,1.40
2018-12-05T10:07:04.944Z,1.40
2018-12-05T10:08:05.038Z,1.50
2018-12-05T10:09:04.298Z,1.50
2018-12-05T10:10:04.759Z,1.50
2018-12-05T10:11:05.266Z,1.60
2018-12-05T10:12:04.477Z,1.60
2018-12-05T10:13:05.082Z,1.60
2018-12-05T10:14:04.472Z,1.70
2018-12-05T10:15:04.483Z,1.70
2018-12-05T10:16:04.616Z,1.70
2018-12-05T10:17:04.961Z,1.80
2018-12-05T10:18:05.233Z,1.80
2018-12-05T10:19:04.331Z,1.80
2018-12-05T10:20:04.305Z,1.90
2018-12-05T10:21:04.560Z,1.90
2018-12-05T10:22:04.582Z,1.90
2018-12-05T10:23:05.068Z,1.90
2018-12-05T10:24:04.982Z,2.00
2018-12-05T10:25:05.248Z,2.00
2018-12-05T10:26:04.611Z,2.00
2018-12-05T10:27:04.659Z,2.10
2018-12-05T10:28:04.916Z,2.10
2018-12-05T10:29:04.173Z,2.10
2018-12-05T10:30:04.769Z,2.10
2018-12-05T10:31:05.136Z,2.20
2018-12-05T10:32:05.070Z,2.20
2018-12-05T10:33:04.731Z,2.20
2018-12-05T10:34:04.275Z,2.30
2018-12-05T10:35:04.748Z,2.30
2018-12-05T10:36:04.268Z,2.30
2018-12-05T10:37:04.475Z,2.30
2018-12-05T10:38:04.586Z,2.30
2018-12-05T10:39:04.809Z,2.40
2018-12-05T10:40:04.465Z,2.40
2018-12-05T10:41:04.898Z,2.40
2018-12-05T10:42:04.991Z,2.50
2018-12-05T10:43:05.296Z,2.50
2018-12-05T10:44:04.734Z,2.60
2018-12-05T10:45:04.721Z,2.60
2018-12-05T10:46:04.852Z,2.60
2018-12-05T10:47:05.006Z,2.60
2018-12-05T10:48:05.184Z,2.60
2018-12-05T10:49:04.402Z,2.70
2018-12-05T10:50:04.825Z,2.70
2018-12-05T10:51:10.103Z,2.70
2018-12-05T10:52:04.453Z,2.80
2018-12-05T10:53:05.003Z,2.80
2018-12-05T10:54:05.031Z,2.80
2018-12-05T10:55:05.073Z,2.90
2018-12-05T10:56:05.155Z,2.90
2018-12-05T10:57:04.651Z,3.00
2018-12-05T10:58:04.641Z,3.00
2018-12-05T10:59:05.131Z,3.00
2018-12-05T11:00:05.020Z,3.10
2018-12-05T11:01:04.552Z,3.10
2018-12-05T11:02:04.763Z,3.10
2018-12-05T11:03:04.787Z,3.20
2018-12-05T11:04:05.082Z,3.20
2018-12-05T11:05:05.331Z,3.20
2018-12-05T11:06:04.317Z,3.30
2018-12-05T11:07:05.002Z,3.30
2018-12-05T11:08:05.125Z,3.30
2018-12-05T11:09:04.637Z,3.30
2018-12-05T11:10:04.842Z,3.40
2018-12-05T11:11:04.794Z,3.40
2018-12-05T11:12:04.420Z,3.40
2018-12-05T11:13:04.245Z,3.50
2018-12-05T11:14:04.386Z,3.50
2018-12-05T11:15:04.680Z,3.50
2018-12-05T11:16:05.086Z,3.60
2018-12-05T11:17:04.642Z,3.60
2018-12-05T11:18:04.930Z,3.60
2018-12-05T11:19:05.062Z,3.60
2018-12-05T11:20:05.264Z,3.70
2018-12-05T11:21:04.572Z,3.70
2018-12-05T11:22:05.052Z,3.80
2018-12-05T11:23:04.692Z,3.80
2018-12-05T11:24:04.773Z,3.80
2018-12-05T11:25:04.238Z,3.80
2018-12-05T11:26:04.781Z,3.90
2018-12-05T11:27:04.728Z,3.90
2018-12-05T11:28:04.914Z,3.90
2018-12-05T11:29:04.294Z,4.00
2018-12-05T11:30:04.838Z,4.00
2018-12-05T11:31:05.066Z,4.00
2018-12-05T11:32:04.273Z,4.10
2018-12-05T11:33:04.731Z,4.10
2018-12-05T11:34:04.644Z,4.10
2018-12-05T11:35:05.084Z,4.10
2018-12-05T11:36:04.279Z,4.10
2018-12-05T11:37:04.685Z,4.20
2018-12-05T11:38:04.768Z,4.20
2018-12-05T11:39:05.062Z,4.20
2018-12-05T11:40:04.583Z,4.20
2018-12-05T11:41:04.719Z,4.30
2018-12-05T11:42:04.819Z,4.30
2018-12-05T11:43:04.887Z,4.30
2018-12-05T11:44:04.371Z,4.30
2018-12-05T11:45:04.507Z,4.40
2018-12-05T11:46:05.195Z,4.40
2018-12-05T11:47:04.473Z,4.40
2018-12-05T11:48:05.031Z,4.40
2018-12-05T11:49:05.020Z,4.50
2018-12-05T11:50:05.101Z,4.50
2018-12-05T11:51:04.556Z,4.50
2018-12-05T11:52:05.176Z,4.50
2018-12-05T11:53:04.489Z,4.50
2018-12-05T11:54:04.685Z,4.60
2018-12-05T11:55:04.759Z,4.60
2018-12-05T11:56:04.930Z,4.60
2018-12-05T11:57:05.152Z,4.60
2018-12-05T11:58:05.078Z,4.60
2018-12-05T11:59:09.379Z,4.60
2018-12-05T12:00:04.807Z,4.70
2018-12-05T12:01:04.990Z,4.70
2018-12-05T12:02:04.856Z,4.70
2018-12-05T12:03:04.850Z,4.70
2018-12-05T12:04:04.524Z,4.70
2018-12-05T12:05:04.555Z,4.70
2018-12-05T12:06:04.647Z,4.80
2018-12-05T12:07:04.896Z,4.80
2018-12-05T12:08:05.125Z,4.80
2018-12-05T12:09:05.316Z,4.80
2018-12-05T12:10:04.849Z,4.80
2018-12-05T12:11:04.871Z,4.80
2018-12-05T12:12:04.236Z,4.90
2018-12-05T12:13:04.423Z,4.90
2018-12-05T12:14:04.784Z,4.90
2018-12-05T12:15:04.439Z,4.90
2018-12-05T12:16:04.671Z,4.90
2018-12-05T12:17:04.908Z,4.90
2018-12-05T12:18:04.497Z,4.90
2018-12-05T12:19:04.465Z,5.00
2018-12-05T12:20:04.823Z,5.00
2018-12-05T12:21:05.046Z,5.00
2018-12-05T12:22:04.282Z,5.00
2018-12-05T12:23:04.915Z,5.00
2018-12-05T12:24:04.973Z,5.00
2018-12-05T12:25:04.250Z,5.00
2018-12-05T12:26:04.486Z,5.00
2018-12-05T12:27:04.444Z,5.10
2018-12-05T12:28:10.249Z,5.10
2018-12-05T12:29:04.654Z,5.10
2018-12-05T12:30:04.892Z,5.10
2018-12-05T12:31:05.083Z,5.10
2018-12-05T12:32:04.517Z,5.10
2018-12-05T12:33:04.689Z,5.10
2018-12-05T12:34:04.919Z,5.10
2018-12-05T12:35:04.475Z,5.10
2018-12-05T12:36:04.609Z,5.10
2018-12-05T12:37:04.748Z,5.10
2018-12-05T12:38:04.757Z,5.10
2018-12-05T12:39:04.451Z,5.10
2018-12-05T12:40:04.610Z,5.20
2018-12-05T12:41:05.034Z,5.20
2018-12-05T12:42:05.226Z,5.20
2018-12-05T12:43:04.880Z,5.20
2018-12-05T12:44:04.926Z,5.20
2018-12-05T12:45:04.970Z,5.20
2018-12-05T12:46:05.078Z,5.20
2018-12-05T12:47:05.102Z,5.20
2018-12-05T12:48:10.080Z,5.20
2018-12-05T12:49:04.486Z,5.20
2018-12-05T12:50:04.666Z,5.20
2018-12-05T12:51:05.056Z,5.20
2018-12-05T12:52:04.539Z,5.20
2018-12-05T12:53:04.794Z,5.20
2018-12-05T12:54:05.107Z,5.20
2018-12-05T12:55:04.255Z,5.20
2018-12-05T12:56:04.795Z,5.20
2018-12-05T12:57:04.270Z,5.20
2018-12-05T12:58:04.582Z,5.20
2018-12-05T12:59:04.710Z,5.20